Time;durP1;ratioP1;P1;durP2;ratioP2;P2;SDS_P1;SDS_P2;PMS_P1;PMS_P2;Temp;Humidity;BMP_temperature;BMP_pressure;BME280_temperature;BME280_humidity;BME280_pressure;Samples;Min_cycle;Max_cycle;Signal;HPM_P1;HPM_P2
2023/08/20 00:00:06;;;;;;;;;;;28.30;49.40;;;27.79;47.24;101382.56;12140914;19;20723;-87
2023/08/20 00:04:30;;;;;;;;;;;28.20;49.40;;;27.78;47.48;101383.56;12132934;19;19929;-87
2023/08/20 00:08:45;;;;;;;;;;;28.20;49.50;;;27.79;47.45;101396.00;12132245;19;19939;-87
2023/08/20 00:13:05;;;;;;;;;;;28.20;49.50;;;27.76;47.21;101393.69;12133066;19;19943;-88
2023/08/20 00:17:07;;;;;;;;;;;28.10;49.50;;;27.74;47.43;101390.34;12131633;19;19923;-87
2023/08/20 00:21:08;;;;;;;;;;;28.10;49.50;;;27.77;47.65;101406.06;12133143;19;19922;-86
2023/08/20 00:25:11;;;;;;;;;;;28.10;49.70;;;27.75;47.53;101400.03;12134510;19;19930;-86
2023/08/20 00:29:13;;;;;;;;;;;28.10;49.70;;;27.74;47.48;101402.94;12136028;19;19927;-87
2023/08/20 00:33:14;;;;;;;;;;;28.20;49.80;;;27.74;47.38;101411.81;12132370;19;20697;-87
2023/08/20 00:37:17;;;;;;;;;;;28.20;49.70;;;27.74;47.69;101414.50;12143087;19;19922;-87
2023/08/20 00:41:18;;;;;;;;;;;28.20;49.80;;;27.75;47.70;101421.50;12139013;19;19915;-87
2023/08/20 00:45:20;;;;;;;;;;;28.20;50.20;;;27.77;47.90;101430.22;12138458;19;20717;-87
2023/08/20 00:49:22;;;;;;;;;;;28.20;49.80;;;27.80;47.59;101439.81;12135296;19;20302;-87
2023/08/20 00:53:23;;;;;;;;;;;28.20;49.80;;;27.73;47.85;101444.19;12135542;19;19930;-86
2023/08/20 00:57:26;;;;;;;;;;;28.20;49.90;;;27.69;47.84;101437.53;12137212;19;20675;-86
2023/08/20 01:01:28;;;;;;;;;;;28.20;49.90;;;27.72;47.93;101445.22;12139573;19;20661;-87
2023/08/20 01:05:32;;;;;;;;;;;28.20;49.80;;;27.67;47.97;101453.78;12136751;19;19918;-86
2023/08/20 01:09:40;;;;;;;;;;;28.10;49.80;;;27.61;48.25;101449.16;12139571;19;20010;-87
2023/08/20 01:13:42;;;;;;;;;;;28.10;49.80;;;27.66;47.81;101464.72;12130181;19;20303;-87
2023/08/20 01:17:45;;;;;;;;;;;28.10;49.90;;;27.61;47.98;101459.06;12137191;19;20276;-87
2023/08/20 01:21:53;;;;;;;;;;;28.00;49.80;;;27.59;47.93;101456.53;12138367;19;19919;-87
2023/08/20 01:26:15;;;;;;;;;;;28.00;49.90;;;27.61;48.10;101467.09;12134852;19;20208;-87
2023/08/20 01:30:17;;;;;;;;;;;28.00;49.90;;;27.52;47.90;101448.38;12136994;19;20601;-87
2023/08/20 01:34:19;;;;;;;;;;;28.00;49.90;;;27.52;47.87;101452.91;12133695;19;19923;-86
2023/08/20 01:38:22;;;;;;;;;;;28.00;50.00;;;27.50;48.36;101449.56;12137299;19;20639;-86
2023/08/20 01:42:23;;;;;;;;;;;28.00;50.30;;;27.49;48.34;101448.75;12140784;19;19918;-87
2023/08/20 01:46:25;;;;;;;;;;;28.00;50.00;;;27.47;48.25;101453.44;12144067;19;19929;-87
2023/08/20 01:50:26;;;;;;;;;;;28.00;50.00;;;27.45;48.24;101452.78;12147257;19;20696;-86
2023/08/20 01:54:28;;;;;;;;;;;28.00;50.00;;;27.44;48.28;101461.84;12142994;19;19918;-87
2023/08/20 01:58:32;;;;;;;;;;;27.90;50.00;;;27.43;48.20;101464.69;12147597;19;19946;-86
2023/08/20 02:02:34;;;;;;;;;;;27.90;50.00;;;27.37;48.37;101463.56;12148570;19;20224;-86
2023/08/20 02:06:36;;;;;;;;;;;27.80;50.00;;;27.31;48.59;101462.44;12144902;19;19915;-87
2023/08/20 02:10:37;;;;;;;;;;;27.80;50.00;;;27.38;48.29;101483.16;12148747;19;20024;-87
2023/08/20 02:14:40;;;;;;;;;;;27.80;50.00;;;27.32;48.20;101477.50;12148283;19;19933;-87
2023/08/20 02:18:42;;;;;;;;;;;27.80;50.00;;;27.30;48.26;101479.53;12147116;19;20319;-87
2023/08/20 02:22:44;;;;;;;;;;;27.70;50.00;;;27.26;48.46;101486.25;12147113;19;20339;-88
2023/08/20 02:26:45;;;;;;;;;;;27.70;50.10;;;27.18;48.57;101486.31;12145029;19;19929;-87
2023/08/20 02:30:47;;;;;;;;;;;27.60;50.30;;;27.18;48.37;101493.50;12148292;19;19949;-88
2023/08/20 02:34:53;;;;;;;;;;;27.60;50.40;;;27.08;48.61;101472.22;12146960;19;20467;-87
2023/08/20 02:38:54;;;;;;;;;;;27.60;50.70;;;27.11;48.59;101496.00;12144750;19;20678;-87
2023/08/20 02:42:56;;;;;;;;;;;27.60;50.70;;;27.10;48.87;101497.03;12144315;19;19945;-87
2023/08/20 02:46:58;;;;;;;;;;;27.50;50.60;;;27.09;48.83;101501.56;12140509;19;19934;-88
2023/08/20 02:51:00;;;;;;;;;;;27.50;50.80;;;27.05;48.53;101502.06;12144972;19;19922;-87
2023/08/20 02:55:03;;;;;;;;;;;27.50;51.10;;;27.07;48.78;101498.22;12142930;19;20901;-88
2023/08/20 02:59:05;;;;;;;;;;;27.50;50.80;;;26.95;48.67;101477.31;12143981;19;20716;-87
2023/08/20 03:03:08;;;;;;;;;;;27.50;50.90;;;27.06;48.67;101501.09;12144344;19;19954;-88
2023/08/20 03:07:11;;;;;;;;;;;27.50;51.30;;;27.10;48.89;101510.44;12141980;19;20781;-87
2023/08/20 03:11:13;;;;;;;;;;;27.50;51.10;;;27.06;48.57;101504.59;12140734;19;19930;-88
2023/08/20 03:15:14;;;;;;;;;;;27.60;51.10;;;27.13;48.69;101512.78;12139416;19;19930;-87
2023/08/20 03:19:16;;;;;;;;;;;27.60;51.10;;;27.07;48.96;101514.31;12143822;19;20490;-87
2023/08/20 03:23:18;;;;;;;;;;;27.60;51.30;;;27.10;49.03;101530.03;12141715;19;19927;-87
2023/08/20 03:27:20;;;;;;;;;;;27.60;51.10;;;27.03;48.88;101507.63;12138175;19;20440;-87
2023/08/20 03:31:22;;;;;;;;;;;27.60;51.30;;;27.08;48.93;101517.81;12142013;19;19922;-88
2023/08/20 03:35:23;;;;;;;;;;;27.60;51.30;;;27.11;49.11;101533.56;12138797;19;19926;-87
2023/08/20 03:39:25;;;;;;;;;;;27.60;51.70;;;27.11;48.93;101546.97;12142981;19;19926;-88
2023/08/20 03:43:27;;;;;;;;;;;27.60;51.30;;;27.13;49.44;101548.47;12138167;19;19926;-87
2023/08/20 03:47:28;;;;;;;;;;;27.60;51.30;;;27.12;49.28;101560.22;12138886;19;20294;-87
2023/08/20 03:51:30;;;;;;;;;;;27.60;51.40;;;27.09;49.54;101555.19;12140030;19;20268;-87
2023/08/20 03:55:32;;;;;;;;;;;27.60;51.50;;;27.13;49.12;101550.31;12137651;19;19926;-87
2023/08/20 03:59:33;;;;;;;;;;;27.60;51.50;;;27.05;49.45;101534.25;12139818;19;19923;-87
2023/08/20 04:03:35;;;;;;;;;;;27.60;51.50;;;27.10;49.35;101553.34;12138020;19;19915;-87
2023/08/20 04:07:37;;;;;;;;;;;27.60;51.50;;;27.12;49.53;101552.16;12137572;19;19922;-87
2023/08/20 04:11:38;;;;;;;;;;;27.60;51.50;;;27.14;49.37;101558.19;12138011;19;20332;-87
2023/08/20 04:15:41;;;;;;;;;;;27.70;51.60;;;27.13;49.59;101555.69;12140505;19;20018;-87
2023/08/20 04:19:42;;;;;;;;;;;27.70;51.80;;;27.17;49.36;101565.09;12140168;19;19930;-87
2023/08/20 04:23:44;;;;;;;;;;;27.70;51.60;;;27.08;49.73;101563.41;12140513;19;20045;-87
2023/08/20 04:27:45;;;;;;;;;;;27.60;51.60;;;27.12;49.83;101573.63;12140785;19;19930;-87
2023/08/20 04:31:47;;;;;;;;;;;27.60;51.60;;;27.13;49.41;101583.31;12138860;19;19919;-86
2023/08/20 04:35:50;;;;;;;;;;;27.60;51.70;;;27.11;49.68;101573.78;12135812;19;19923;-86
2023/08/20 04:39:52;;;;;;;;;;;27.60;51.70;;;26.99;49.72;101556.41;12138635;19;19931;-87
2023/08/20 04:43:54;;;;;;;;;;;27.60;52.10;;;27.02;49.98;101570.28;12138426;19;20264;-86
2023/08/20 04:47:59;;;;;;;;;;;27.60;51.90;;;27.00;49.52;101572.31;12137337;19;19930;-89
2023/08/20 04:52:01;;;;;;;;;;;27.60;51.90;;;27.05;49.55;101579.84;12138675;19;20314;-87
2023/08/20 04:56:05;;;;;;;;;;;27.60;51.90;;;27.04;49.83;101595.09;12134538;19;20006;-86
2023/08/20 05:00:07;;;;;;;;;;;27.60;52.00;;;27.04;49.82;101595.09;12138685;19;20671;-86
2023/08/20 05:04:27;;;;;;;;;;;27.50;52.20;;;26.98;50.06;101589.56;12139002;19;20284;-87
2023/08/20 05:08:29;;;;;;;;;;;27.50;52.30;;;26.98;50.06;101574.34;12137956;19;19919;-86
2023/08/20 05:12:30;;;;;;;;;;;27.50;52.40;;;26.96;49.68;101580.88;12135819;19;19950;-87
2023/08/20 05:16:32;;;;;;;;;;;27.50;52.30;;;26.95;49.81;101582.72;12134715;19;19938;-87
2023/08/20 05:20:34;;;;;;;;;;;27.50;52.50;;;26.97;50.22;101582.53;12150420;19;20745;-86
2023/08/20 05:24:36;;;;;;;;;;;27.50;52.90;;;27.00;49.95;101592.91;12147291;19;20287;-86
2023/08/20 05:28:38;;;;;;;;;;;27.50;52.50;;;26.99;49.98;101600.13;12148896;19;20018;-87
2023/08/20 05:32:40;;;;;;;;;;;27.50;52.50;;;26.95;50.24;101603.31;12146073;19;19933;-86
2023/08/20 05:36:41;;;;;;;;;;;27.50;52.60;;;26.90;50.21;101604.69;12144821;19;20742;-86
2023/08/20 05:40:43;;;;;;;;;;;27.40;52.30;;;26.98;50.04;101608.34;12150121;19;19943;-87
2023/08/20 05:44:45;;;;;;;;;;;27.50;52.60;;;26.97;50.41;101612.88;12148366;19;20236;-86
2023/08/20 05:48:51;;;;;;;;;;;27.50;52.50;;;26.98;50.21;101611.00;12146625;19;20471;-87
2023/08/20 05:52:53;;;;;;;;;;;27.50;52.60;;;27.00;50.36;101619.72;12145991;19;20432;-87
2023/08/20 05:56:58;;;;;;;;;;;27.50;52.50;;;27.00;50.27;101617.06;12144430;19;19951;-86
2023/08/20 06:00:59;;;;;;;;;;;27.50;52.70;;;26.98;50.19;101611.00;12143190;19;19930;-87
2023/08/20 06:05:01;;;;;;;;;;;27.60;53.20;;;27.09;50.54;101624.91;12143334;19;19922;-86
2023/08/20 06:09:03;;;;;;;;;;;27.60;52.90;;;27.13;50.47;101628.09;12145483;19;20847;-82
2023/08/20 06:13:04;;;;;;;;;;;27.70;53.20;;;27.26;50.48;101652.56;12145309;19;19931;-83
2023/08/20 06:17:06;;;;;;;;;;;27.70;52.70;;;27.26;50.52;101646.34;12144056;19;19919;-83
2023/08/20 06:21:07;;;;;;;;;;;27.80;52.90;;;27.31;50.60;101650.19;12145360;19;19926;-82
2023/08/20 06:25:09;;;;;;;;;;;27.80;53.40;;;27.35;50.70;101650.69;12146354;19;19957;-83
2023/08/20 06:29:10;;;;;;;;;;;27.90;53.10;;;27.40;50.46;101659.06;12148932;19;19934;-84
2023/08/20 06:33:12;;;;;;;;;;;27.90;53.00;;;27.43;50.41;101668.59;12144415;19;20519;-83
2023/08/20 06:37:13;;;;;;;;;;;28.00;53.00;;;27.44;50.62;101671.13;12146002;19;19923;-83
2023/08/20 06:41:14;;;;;;;;;;;28.00;53.10;;;27.44;50.63;101656.88;12142949;19;19926;-84
2023/08/20 06:45:16;;;;;;;;;;;28.00;53.20;;;27.55;50.51;101672.59;12147634;19;19947;-84
2023/08/20 06:49:17;;;;;;;;;;;28.10;53.40;;;27.53;50.84;101663.88;12142605;19;20455;-84
2023/08/20 06:53:19;;;;;;;;;;;28.10;53.30;;;27.62;51.01;101672.72;12142321;19;19926;-86
2023/08/20 06:57:20;;;;;;;;;;;28.20;53.20;;;27.57;50.75;101670.56;12148414;19;19919;-84
2023/08/20 07:01:22;;;;;;;;;;;28.20;53.20;;;27.66;50.99;101684.81;12146293;19;20653;-84
2023/08/20 07:05:23;;;;;;;;;;;28.20;53.10;;;27.65;50.80;101686.63;12144036;19;20225;-84
2023/08/20 07:09:25;;;;;;;;;;;28.20;53.00;;;27.67;51.06;101698.03;12145761;19;19918;-83
2023/08/20 07:13:26;;;;;;;;;;;28.20;53.00;;;27.68;50.83;101686.31;12135857;19;20744;-84
2023/08/20 07:17:27;;;;;;;;;;;28.30;52.90;;;27.78;51.12;101700.34;12139528;19;20670;-83
2023/08/20 07:21:29;;;;;;;;;;;28.30;53.10;;;27.77;50.90;101713.94;12137811;19;19926;-84
2023/08/20 07:25:30;;;;;;;;;;;28.40;53.10;;;27.80;51.06;101703.72;12130357;19;19919;-84
2023/08/20 07:29:32;;;;;;;;;;;28.40;52.90;;;27.78;50.76;101711.06;12143742;19;19922;-83
2023/08/20 07:33:33;;;;;;;;;;;28.40;52.80;;;27.83;50.89;101717.81;12140684;19;20295;-84
2023/08/20 07:37:34;;;;;;;;;;;28.40;52.90;;;27.84;50.98;101735.59;12138272;19;19915;-83
2023/08/20 07:41:36;;;;;;;;;;;28.40;53.10;;;27.83;50.91;101720.50;12141581;19;19915;-84
2023/08/20 07:45:37;;;;;;;;;;;28.40;52.90;;;27.82;50.94;101716.16;12140326;19;19919;-84
2023/08/20 07:49:39;;;;;;;;;;;28.40;53.00;;;27.90;51.08;101716.13;12143275;19;20364;-83
2023/08/20 07:53:40;;;;;;;;;;;28.40;53.60;;;27.95;50.84;101721.75;12138782;19;19948;-84
2023/08/20 07:57:42;;;;;;;;;;;28.50;53.80;;;28.00;50.74;101730.13;12140116;19;19922;-83
2023/08/20 08:01:44;;;;;;;;;;;28.50;53.30;;;28.00;51.07;101719.41;12141260;19;19943;-84
2023/08/20 08:05:49;;;;;;;;;;;28.60;53.20;;;28.12;51.22;101728.75;12132338;19;19914;-84
2023/08/20 08:09:50;;;;;;;;;;;28.70;54.00;;;28.20;51.01;101726.03;12126846;19;20722;-84
2023/08/20 08:13:52;;;;;;;;;;;28.80;53.50;;;28.19;51.29;101729.72;12141683;19;20276;-83
2023/08/20 08:17:53;;;;;;;;;;;28.80;53.40;;;28.31;51.14;101732.84;12122048;19;20205;-83
2023/08/20 08:21:56;;;;;;;;;;;29.00;53.30;;;28.40;51.11;101752.44;12149152;19;19919;-84
2023/08/20 08:25:57;;;;;;;;;;;29.00;53.10;;;28.44;51.13;101762.69;12148509;19;19920;-85
2023/08/20 08:29:58;;;;;;;;;;;29.00;53.10;;;28.41;50.88;101759.50;12143369;19;19944;-83
2023/08/20 08:34:03;;;;;;;;;;;29.10;53.00;;;28.39;51.17;101745.41;12156402;19;20763;-83
2023/08/20 08:38:04;;;;;;;;;;;29.10;52.90;;;28.45;51.30;101747.41;12147733;19;20069;-83
2023/08/20 08:42:07;;;;;;;;;;;29.10;53.00;;;28.48;51.52;101749.72;12130028;19;19931;-84
2023/08/20 08:46:17;;;;;;;;;;;29.10;53.00;;;28.61;51.11;101766.09;12134669;19;19915;-84
2023/08/20 08:50:19;;;;;;;;;;;29.20;53.10;;;28.61;51.07;101762.59;12127383;19;20722;-83
2023/08/20 08:54:21;;;;;;;;;;;29.20;53.00;;;28.65;51.46;101754.00;12147820;19;20159;-83
2023/08/20 08:58:22;;;;;;;;;;;29.30;53.10;;;28.47;51.46;101710.44;12159388;19;20830;-84
2023/08/20 09:02:23;;;;;;;;;;;29.40;53.20;;;28.84;51.33;101762.56;12154849;19;20276;-83
2023/08/20 09:06:25;;;;;;;;;;;29.40;53.00;;;28.93;51.10;101779.50;12143505;19;20322;-83
2023/08/20 09:10:27;;;;;;;;;;;29.50;53.00;;;29.01;51.08;101772.22;12146619;19;20416;-83
2023/08/20 09:14:30;;;;;;;;;;;29.60;53.50;;;29.14;51.28;101770.78;12133479;19;20288;-83
2023/08/20 09:18:42;;;;;;;;;;;29.70;53.20;;;29.23;51.26;101761.63;12144958;19;19923;-84
2023/08/20 09:22:48;;;;;;;;;;;29.80;53.00;;;29.34;51.40;101771.94;12143936;19;19922;-84
2023/08/20 09:26:49;;;;;;;;;;;30.00;53.10;;;29.40;51.55;101756.91;12133868;19;20176;-84
2023/08/20 09:31:01;;;;;;;;;;;30.10;53.00;;;29.53;51.51;101757.94;12134960;19;19923;-85
2023/08/20 09:35:02;;;;;;;;;;;30.20;53.00;;;29.63;51.29;101755.00;12143368;19;20554;-84
2023/08/20 09:39:04;;;;;;;;;;;30.30;52.90;;;29.66;51.44;101751.13;12153830;19;19926;-83
2023/08/20 09:43:08;;;;;;;;;;;30.40;52.80;;;29.73;51.16;101752.03;12152182;19;20396;-83
2023/08/20 09:47:13;;;;;;;;;;;30.50;52.60;;;29.71;51.05;101725.31;12132854;19;20687;-84
2023/08/20 09:51:18;;;;;;;;;;;30.50;52.50;;;29.83;51.11;101739.13;12141134;19;20259;-84
2023/08/20 09:55:25;;;;;;;;;;;30.60;52.50;;;29.85;51.02;101731.69;12135462;19;19927;-83
2023/08/20 09:59:26;;;;;;;;;;;30.60;52.40;;;29.97;50.92;101751.75;12138807;19;20026;-82
2023/08/20 10:03:28;;;;;;;;;;;30.60;52.40;;;30.05;51.34;101741.88;12138363;19;19919;-84
2023/08/20 10:07:31;;;;;;;;;;;30.70;52.40;;;30.03;51.27;101714.28;12139990;19;20368;-83
2023/08/20 10:11:33;;;;;;;;;;;30.80;52.40;;;30.22;51.34;101727.19;12134882;19;21223;-85
2023/08/20 10:15:36;;;;;;;;;;;30.90;52.10;;;30.27;51.35;101738.22;12139502;19;19915;-84
2023/08/20 10:19:38;;;;;;;;;;;31.00;52.10;;;30.39;51.04;101739.41;12139259;19;19926;-83
2023/08/20 10:23:47;;;;;;;;;;;31.10;52.40;;;30.50;51.00;101745.34;12140641;19;20241;-85
2023/08/20 10:27:49;;;;;;;;;;;31.20;52.30;;;30.60;51.19;101745.84;12140273;19;20065;-84
2023/08/20 10:31:53;;;;;;;;;;;31.30;52.30;;;30.65;51.21;101729.94;12140224;19;20394;-86
2023/08/20 10:35:55;;;;;;;;;;;31.50;52.30;;;30.83;51.09;101748.38;12139217;19;20184;-84
2023/08/20 10:39:57;;;;;;;;;;;31.50;51.90;;;30.70;50.74;101707.75;12142764;19;19919;-85
2023/08/20 10:43:59;;;;;;;;;;;31.60;52.00;;;30.98;51.00;101735.66;12141595;19;19951;-84
2023/08/20 10:48:02;;;;;;;;;;;31.70;51.90;;;31.03;51.18;101738.59;12141948;19;19934;-83
2023/08/20 10:52:05;;;;;;;;;;;31.80;51.50;;;31.16;50.77;101745.94;12138902;19;19935;-84
2023/08/20 10:56:11;;;;;;;;;;;31.80;51.60;;;31.20;50.69;101728.34;12141993;19;19923;-83
2023/08/20 11:00:15;;;;;;;;;;;32.00;51.80;;;31.30;50.89;101717.22;12140531;19;19935;-85
2023/08/20 11:04:21;;;;;;;;;;;32.10;52.00;;;31.49;50.77;101729.19;12128804;19;19919;-83
2023/08/20 11:08:22;;;;;;;;;;;32.20;51.90;;;31.50;50.53;101715.47;12142503;19;19914;-84
2023/08/20 11:12:24;;;;;;;;;;;32.30;50.70;;;31.56;50.36;101707.63;12131602;19;19987;-84
2023/08/20 11:16:25;;;;;;;;;;;32.40;51.40;;;31.66;50.42;101708.09;12135128;19;19955;-84
2023/08/20 11:20:26;;;;;;;;;;;32.40;51.00;;;31.76;50.29;101708.56;12140653;19;20425;-82
2023/08/20 11:24:31;;;;;;;;;;;32.60;50.90;;;31.86;50.50;101718.97;12133304;19;20842;-84
2023/08/20 11:28:32;;;;;;;;;;;32.70;49.80;;;32.02;50.31;101734.84;12140920;19;20989;-85
2023/08/20 11:32:34;;;;;;;;;;;32.80;50.30;;;32.09;50.19;101732.19;12137920;19;19949;-84
2023/08/20 11:36:38;;;;;;;;;;;32.80;50.20;;;32.10;50.22;101734.69;12142402;19;19941;-85
2023/08/20 11:40:40;;;;;;;;;;;32.90;49.20;;;32.13;50.06;101723.47;12140379;19;19926;-85
2023/08/20 11:44:46;;;;;;;;;;;32.90;49.00;;;32.26;50.04;101729.94;12138421;19;20747;-84
2023/08/20 11:49:12;;;;;;;;;;;33.00;49.40;;;32.34;49.82;101737.88;12135635;19;20700;-87
2023/08/20 11:53:14;;;;;;;;;;;33.10;49.90;;;32.37;49.70;101734.75;12140016;19;20991;-83
2023/08/20 11:57:58;;;;;;;;;;;33.10;48.70;;;31.99;49.66;101664.19;12173989;19;19915;-85
2023/08/20 12:07:26;;;;;;;;;;;33.30;49.20;;;32.47;49.54;101720.88;12110925;19;19922;-84
2023/08/20 12:11:55;;;;;;;;;;;33.40;48.80;;;32.55;49.62;101712.56;12162693;19;20176;-85
2023/08/20 12:15:57;;;;;;;;;;;33.40;49.00;;;32.75;48.97;101729.63;12164393;19;20689;-83
2023/08/20 12:19:58;;;;;;;;;;;33.50;49.00;;;32.71;49.12;101725.69;12133501;19;19914;-85
2023/08/20 12:24:00;;;;;;;;;;;33.50;49.00;;;32.82;49.04;101730.47;12138732;19;19929;-85
2023/08/20 12:28:06;;;;;;;;;;;33.60;46.80;;;32.80;48.81;101715.50;12141286;19;19923;-85
2023/08/20 12:32:08;;;;;;;;;;;33.60;48.40;;;32.76;48.84;101715.09;12133896;19;19951;-86
2023/08/20 12:36:28;;;;;;;;;;;33.70;47.30;;;32.73;48.82;101695.72;12139520;19;19925;-86
2023/08/20 12:40:32;;;;;;;;;;;33.60;48.10;;;32.88;48.45;101715.28;12143440;19;19918;-85
2023/08/20 12:44:33;;;;;;;;;;;33.60;46.20;;;32.91;48.54;101720.28;12136861;19;20249;-86
2023/08/20 12:48:35;;;;;;;;;;;33.60;47.60;;;32.93;48.49;101712.78;12137173;19;19919;-85
2023/08/20 12:52:36;;;;;;;;;;;33.60;47.90;;;32.94;48.36;101711.72;12136453;19;19915;-86
2023/08/20 12:56:37;;;;;;;;;;;33.70;47.30;;;33.01;48.51;101695.53;12132966;19;20695;-85
2023/08/20 13:00:39;;;;;;;;;;;33.70;48.00;;;33.03;48.47;101693.47;12135171;19;19943;-86
2023/08/20 13:04:40;;;;;;;;;;;33.80;48.20;;;33.13;48.15;101711.97;12130650;19;19923;-85
2023/08/20 13:08:42;;;;;;;;;;;33.80;47.90;;;33.12;47.83;101707.59;12139531;19;19922;-84
2023/08/20 13:12:49;;;;;;;;;;;33.90;47.70;;;33.14;47.95;101689.28;12132556;19;19927;-83
2023/08/20 13:16:50;;;;;;;;;;;33.90;47.10;;;33.20;47.48;101713.63;12131334;19;20033;-83
2023/08/20 13:20:52;;;;;;;;;;;33.90;47.10;;;33.19;47.68;101708.41;12140951;19;20307;-83
2023/08/20 13:24:54;;;;;;;;;;;33.90;47.40;;;33.22;47.63;101708.84;12127075;19;19933;-84
2023/08/20 13:28:56;;;;;;;;;;;33.90;46.00;;;33.24;47.36;101706.75;12141422;19;20303;-83
2023/08/20 13:32:58;;;;;;;;;;;34.00;45.80;;;33.24;47.45;101703.19;12136731;19;19927;-84
2023/08/20 13:37:00;;;;;;;;;;;34.00;47.10;;;33.22;47.31;101698.00;12137412;19;20213;-85
2023/08/20 13:41:01;;;;;;;;;;;34.00;46.60;;;33.24;47.31;101692.34;12150912;19;19923;-84
2023/08/20 13:45:03;;;;;;;;;;;33.90;46.90;;;33.27;47.12;101700.09;12147332;19;20221;-84
2023/08/20 13:49:05;;;;;;;;;;;33.90;46.90;;;33.25;46.82;101691.34;12152467;19;19964;-84
2023/08/20 13:53:06;;;;;;;;;;;33.90;46.60;;;33.23;46.92;101693.41;12147546;19;20451;-83
2023/08/20 13:57:08;;;;;;;;;;;33.80;46.90;;;33.23;46.93;101699.66;12145863;19;19943;-84
2023/08/20 14:01:09;;;;;;;;;;;33.80;46.60;;;33.24;46.68;101700.47;12148374;19;20009;-84
2023/08/20 14:05:11;;;;;;;;;;;33.90;46.20;;;33.23;46.84;101688.00;12152220;19;20721;-84
2023/08/20 14:09:12;;;;;;;;;;;33.90;46.90;;;33.33;46.70;101693.00;12149736;19;19918;-85
2023/08/20 14:13:13;;;;;;;;;;;33.90;46.60;;;33.32;46.76;101697.53;12150520;19;19922;-86
2023/08/20 14:17:15;;;;;;;;;;;33.90;46.70;;;33.24;46.43;101685.09;12148255;19;19930;-86
2023/08/20 14:21:17;;;;;;;;;;;33.90;46.70;;;33.34;46.20;101694.63;12149765;19;19919;-85
2023/08/20 14:25:18;;;;;;;;;;;33.90;46.50;;;33.35;46.17;101694.44;12149362;19;19979;-85
2023/08/20 14:29:19;;;;;;;;;;;33.90;46.20;;;33.36;46.30;101693.38;12154439;19;19919;-84
2023/08/20 14:33:21;;;;;;;;;;;34.00;46.60;;;33.36;46.40;101690.66;12152824;19;19937;-85
2023/08/20 14:37:22;;;;;;;;;;;34.00;46.50;;;33.35;45.99;101691.72;12147615;19;20317;-85
2023/08/20 14:41:24;;;;;;;;;;;34.00;46.10;;;33.40;46.03;101686.47;12148670;19;19990;-85
2023/08/20 14:45:25;;;;;;;;;;;34.00;46.20;;;33.37;46.11;101683.38;12153778;19;19942;-85
2023/08/20 14:49:28;;;;;;;;;;;34.00;45.70;;;33.31;45.87;101673.41;12156719;19;19922;-85
2023/08/20 14:53:29;;;;;;;;;;;34.00;45.90;;;33.38;45.68;101685.88;12154520;19;19922;-85
2023/08/20 14:57:31;;;;;;;;;;;34.00;46.20;;;33.33;45.52;101674.03;12152296;19;19925;-85
2023/08/20 15:01:32;;;;;;;;;;;33.90;46.10;;;33.32;45.77;101673.16;12154301;19;20715;-85
2023/08/20 15:05:34;;;;;;;;;;;33.90;45.90;;;33.34;45.67;101679.22;12153414;19;19926;-85
2023/08/20 15:09:39;;;;;;;;;;;33.90;45.80;;;33.32;45.66;101678.59;12155671;19;20651;-84
2023/08/20 15:13:40;;;;;;;;;;;33.90;45.70;;;33.16;45.12;101654.69;12152102;19;19939;-85
2023/08/20 15:17:41;;;;;;;;;;;33.90;45.60;;;33.26;45.38;101679.44;12153161;19;20008;-84
2023/08/20 15:21:43;;;;;;;;;;;33.80;45.40;;;33.22;45.41;101680.94;12154065;19;19919;-85
2023/08/20 15:25:47;;;;;;;;;;;33.70;45.40;;;33.17;45.00;101669.91;12154929;19;20037;-85
2023/08/20 15:29:48;;;;;;;;;;;33.70;45.50;;;33.13;45.16;101679.47;12153036;19;19955;-86
2023/08/20 15:33:51;;;;;;;;;;;33.60;45.10;;;33.08;44.83;101673.84;12157896;19;19950;-85
2023/08/20 15:37:53;;;;;;;;;;;33.60;45.30;;;33.00;45.26;101677.56;12150996;19;20002;-85
2023/08/20 15:41:55;;;;;;;;;;;33.50;44.70;;;33.00;45.32;101675.75;12155611;19;19927;-85
2023/08/20 15:45:56;;;;;;;;;;;33.50;45.00;;;32.98;44.95;101674.28;12156702;19;19923;-85
2023/08/20 15:49:58;;;;;;;;;;;33.50;45.00;;;32.95;44.66;101666.59;12154028;19;19939;-86
2023/08/20 15:53:59;;;;;;;;;;;33.50;44.50;;;32.90;44.79;101660.97;12153012;19;20356;-85
2023/08/20 15:58:01;;;;;;;;;;;33.40;44.80;;;32.81;44.74;101652.19;12152149;19;19927;-85
2023/08/20 16:02:02;;;;;;;;;;;33.40;43.90;;;32.85;44.63;101664.28;12148416;19;20195;-87
2023/08/20 16:06:04;;;;;;;;;;;33.40;43.40;;;32.76;44.20;101658.25;12144027;19;19930;-86
2023/08/20 16:10:06;;;;;;;;;;;33.30;43.80;;;32.77;44.92;101670.75;12142446;19;19923;-85
2023/08/20 16:14:07;;;;;;;;;;;33.30;43.20;;;32.78;44.31;101669.72;12112947;19;19942;-85
2023/08/20 16:18:09;;;;;;;;;;;33.20;42.90;;;32.74;44.39;101673.03;12123246;19;19926;-86
2023/08/20 16:22:10;;;;;;;;;;;33.20;42.90;;;32.72;43.94;101670.53;12137744;19;20771;-86
2023/08/20 16:26:12;;;;;;;;;;;33.10;43.90;;;32.68;44.10;101674.72;12145401;19;19937;-84
2023/08/20 16:30:13;;;;;;;;;;;33.10;43.70;;;32.65;43.82;101674.28;12142991;19;20625;-85
2023/08/20 16:34:14;;;;;;;;;;;33.10;43.90;;;32.61;44.17;101672.00;12141911;19;20195;-84
2023/08/20 16:38:16;;;;;;;;;;;33.00;44.00;;;32.55;44.07;101674.72;12144322;19;20367;-85
2023/08/20 16:42:17;;;;;;;;;;;33.00;44.20;;;32.52;43.66;101670.53;12147776;19;20268;-85
2023/08/20 16:46:19;;;;;;;;;;;33.00;44.40;;;32.52;43.76;101659.72;12141272;19;20272;-85
2023/08/20 16:50:20;;;;;;;;;;;33.00;44.30;;;32.54;43.66;101673.03;12135218;19;19922;-87
2023/08/20 16:54:23;;;;;;;;;;;33.00;44.30;;;32.46;43.84;101654.25;12140770;19;20188;-88
2023/08/20 16:58:25;;;;;;;;;;;32.90;44.30;;;32.47;43.44;101661.38;12131575;19;20225;-86
2023/08/20 17:02:26;;;;;;;;;;;32.90;44.40;;;32.39;43.68;101660.50;12144403;19;20334;-86
2023/08/20 17:06:27;;;;;;;;;;;32.80;44.30;;;32.35;43.41;101664.69;12137659;19;19927;-86
2023/08/20 17:15:34;;;;;;;;;;;32.80;44.30;;;32.22;43.48;101669.19;12198280;19;19927;-86
2023/08/20 17:20:13;;;;;;;;;;;;;;;;;;;;;
2023/08/20 17:25:15;;;;;;;;;;;;;;;;;;;;;
2023/08/20 17:39:46;;;;;;;;;;;;;;;;;;;;;
2023/08/20 17:44:33;;;;;;;;;;;32.20;44.80;;;31.43;43.71;101624.66;12186411;19;19931;-87
2023/08/20 17:48:39;;;;;;;;;;;32.30;44.90;;;31.74;43.37;101689.84;12173087;19;19917;-88
2023/08/20 17:52:45;;;;;;;;;;;32.10;45.00;;;31.65;43.29;101692.91;12162738;19;20861;-87
2023/08/20 17:56:50;;;;;;;;;;;32.00;45.00;;;31.53;43.26;101696.16;12156345;19;20315;-87
2023/08/20 18:00:52;;;;;;;;;;;31.90;45.10;;;31.26;43.36;101670.03;12159875;19;20658;-87
2023/08/20 18:04:55;;;;;;;;;;;31.80;45.00;;;31.23;43.52;101678.53;12180290;19;20644;-86
2023/08/20 18:08:56;;;;;;;;;;;31.70;45.00;;;31.16;43.55;101685.75;12152911;19;19930;-87
2023/08/20 18:12:57;;;;;;;;;;;31.50;45.00;;;31.03;43.62;101697.28;12152475;19;20465;-85
2023/08/20 18:16:59;;;;;;;;;;;31.40;44.90;;;30.93;43.39;101702.19;12144023;19;19926;-87
2023/08/20 18:21:00;;;;;;;;;;;31.20;44.80;;;30.90;43.68;101716.06;12141945;19;19923;-87
2023/08/20 18:25:02;;;;;;;;;;;31.20;45.00;;;30.76;43.35;101715.06;12137674;19;19915;-86
2023/08/20 18:29:03;;;;;;;;;;;31.10;44.90;;;30.69;43.72;101724.97;12150545;19;20344;-85
2023/08/20 18:33:05;;;;;;;;;;;31.00;44.90;;;30.55;43.63;101726.72;12140258;19;20388;-86
2023/08/20 18:37:06;;;;;;;;;;;30.90;44.90;;;30.46;43.57;101731.41;12139340;19;19923;-88